sensor_id;sensor_type;location;lat;lon;timestamp;P1;durP1;ratioP1;P2;durP2;ratioP2
71290;SDS011;59073;51.994;4.448;2023-06-14T00:00:10;2.70;;;2.70;;
71290;SDS011;59073;51.994;4.448;2023-06-14T00:02:38;2.36;;;2.36;;
71290;SDS011;59073;51.994;4.448;2023-06-14T00:05:05;2.45;;;2.45;;
71290;SDS011;59073;51.994;4.448;2023-06-14T00:07:38;2.58;;;2.58;;
71290;SDS011;59073;51.994;4.448;2023-06-14T00:10:07;2.64;;;2.64;;
71290;SDS011;59073;51.994;4.448;2023-06-14T00:12:34;2.48;;;2.48;;
71290;SDS011;59073;51.994;4.448;2023-06-14T00:15:00;2.51;;;2.51;;
71290;SDS011;59073;51.994;4.448;2023-06-14T00:17:26;2.33;;;2.33;;
71290;SDS011;59073;51.994;4.448;2023-06-14T00:19:58;2.53;;;2.53;;
71290;SDS011;59073;51.994;4.448;2023-06-14T00:22:24;2.71;;;2.71;;
71290;SDS011;59073;51.994;4.448;2023-06-14T00:24:50;2.70;;;2.70;;
71290;SDS011;59073;51.994;4.448;2023-06-14T00:27:16;2.60;;;2.60;;
71290;SDS011;59073;51.994;4.448;2023-06-14T00:29:42;2.86;;;2.86;;
71290;SDS011;59073;51.994;4.448;2023-06-14T00:32:08;2.58;;;2.58;;
71290;SDS011;59073;51.994;4.448;2023-06-14T00:34:33;2.58;;;2.58;;
71290;SDS011;59073;51.994;4.448;2023-06-14T00:36:59;2.40;;;2.40;;
71290;SDS011;59073;51.994;4.448;2023-06-14T00:39:25;2.62;;;2.62;;
71290;SDS011;59073;51.994;4.448;2023-06-14T00:41:51;2.95;;;2.95;;
71290;SDS011;59073;51.994;4.448;2023-06-14T00:44:16;2.89;;;2.89;;
71290;SDS011;59073;51.994;4.448;2023-06-14T00:46:42;2.98;;;2.98;;
71290;SDS011;59073;51.994;4.448;2023-06-14T00:49:09;2.66;;;2.66;;
71290;SDS011;59073;51.994;4.448;2023-06-14T00:51:36;2.70;;;2.70;;
71290;SDS011;59073;51.994;4.448;2023-06-14T00:54:02;2.98;;;2.98;;
71290;SDS011;59073;51.994;4.448;2023-06-14T00:56:28;2.82;;;2.82;;
71290;SDS011;59073;51.994;4.448;2023-06-14T00:58:54;2.57;;;2.57;;
71290;SDS011;59073;51.994;4.448;2023-06-14T01:01:21;2.64;;;2.64;;
71290;SDS011;59073;51.994;4.448;2023-06-14T01:03:47;2.84;;;2.84;;
71290;SDS011;59073;51.994;4.448;2023-06-14T01:06:21;3.04;;;3.04;;
71290;SDS011;59073;51.994;4.448;2023-06-14T01:09:03;2.92;;;2.92;;
71290;SDS011;59073;51.994;4.448;2023-06-14T01:11:38;3.04;;;3.04;;
71290;SDS011;59073;51.994;4.448;2023-06-14T01:14:12;3.24;;;3.24;;
71290;SDS011;59073;51.994;4.448;2023-06-14T01:16:39;2.85;;;2.85;;
71290;SDS011;59073;51.994;4.448;2023-06-14T01:19:07;2.93;;;2.93;;
71290;SDS011;59073;51.994;4.448;2023-06-14T01:21:38;2.89;;;2.89;;
71290;SDS011;59073;51.994;4.448;2023-06-14T01:24:07;3.11;;;3.11;;
71290;SDS011;59073;51.994;4.448;2023-06-14T01:26:34;3.15;;;3.15;;
71290;SDS011;59073;51.994;4.448;2023-06-14T01:29:02;3.16;;;3.16;;
71290;SDS011;59073;51.994;4.448;2023-06-14T01:31:29;2.93;;;2.93;;
71290;SDS011;59073;51.994;4.448;2023-06-14T01:33:54;3.01;;;3.01;;
71290;SDS011;59073;51.994;4.448;2023-06-14T01:36:20;3.15;;;3.15;;
71290;SDS011;59073;51.994;4.448;2023-06-14T01:38:51;3.07;;;3.07;;
71290;SDS011;59073;51.994;4.448;2023-06-14T01:41:18;2.95;;;2.95;;
71290;SDS011;59073;51.994;4.448;2023-06-14T01:43:46;3.04;;;3.04;;
71290;SDS011;59073;51.994;4.448;2023-06-14T01:46:15;2.87;;;2.87;;
71290;SDS011;59073;51.994;4.448;2023-06-14T01:48:41;2.93;;;2.93;;
71290;SDS011;59073;51.994;4.448;2023-06-14T01:51:07;3.14;;;3.14;;
71290;SDS011;59073;51.994;4.448;2023-06-14T01:53:32;3.01;;;3.01;;
71290;SDS011;59073;51.994;4.448;2023-06-14T01:55:58;3.07;;;3.07;;
71290;SDS011;59073;51.994;4.448;2023-06-14T01:58:24;3.01;;;3.01;;
71290;SDS011;59073;51.994;4.448;2023-06-14T02:00:49;2.97;;;2.97;;
71290;SDS011;59073;51.994;4.448;2023-06-14T02:03:16;3.05;;;3.05;;
71290;SDS011;59073;51.994;4.448;2023-06-14T02:05:42;2.98;;;2.98;;
71290;SDS011;59073;51.994;4.448;2023-06-14T02:08:08;2.86;;;2.86;;
71290;SDS011;59073;51.994;4.448;2023-06-14T02:10:33;3.01;;;3.00;;
71290;SDS011;59073;51.994;4.448;2023-06-14T02:12:59;2.85;;;2.85;;
71290;SDS011;59073;51.994;4.448;2023-06-14T02:15:25;3.18;;;3.18;;
71290;SDS011;59073;51.994;4.448;2023-06-14T02:17:52;2.80;;;2.80;;
71290;SDS011;59073;51.994;4.448;2023-06-14T02:20:19;3.03;;;3.03;;
71290;SDS011;59073;51.994;4.448;2023-06-14T02:22:44;2.83;;;2.83;;
71290;SDS011;59073;51.994;4.448;2023-06-14T02:25:10;3.15;;;3.15;;
71290;SDS011;59073;51.994;4.448;2023-06-14T02:27:36;3.06;;;3.06;;
71290;SDS011;59073;51.994;4.448;2023-06-14T02:30:01;3.06;;;3.06;;
71290;SDS011;59073;51.994;4.448;2023-06-14T02:32:27;2.89;;;2.89;;
71290;SDS011;59073;51.994;4.448;2023-06-14T02:34:53;2.69;;;2.69;;
71290;SDS011;59073;51.994;4.448;2023-06-14T02:37:19;2.97;;;2.97;;
71290;SDS011;59073;51.994;4.448;2023-06-14T02:39:45;3.08;;;3.08;;
71290;SDS011;59073;51.994;4.448;2023-06-14T02:42:11;3.16;;;3.16;;
71290;SDS011;59073;51.994;4.448;2023-06-14T02:44:37;3.23;;;3.23;;
71290;SDS011;59073;51.994;4.448;2023-06-14T02:47:02;3.29;;;3.29;;
71290;SDS011;59073;51.994;4.448;2023-06-14T02:49:29;3.16;;;3.15;;
71290;SDS011;59073;51.994;4.448;2023-06-14T02:51:55;3.24;;;3.24;;
71290;SDS011;59073;51.994;4.448;2023-06-14T02:54:20;3.05;;;3.05;;
71290;SDS011;59073;51.994;4.448;2023-06-14T02:56:46;2.91;;;2.91;;
71290;SDS011;59073;51.994;4.448;2023-06-14T02:59:11;2.86;;;2.86;;
71290;SDS011;59073;51.994;4.448;2023-06-14T03:01:38;3.00;;;3.00;;
71290;SDS011;59073;51.994;4.448;2023-06-14T03:04:06;2.86;;;2.86;;
71290;SDS011;59073;51.994;4.448;2023-06-14T03:06:33;2.92;;;2.92;;
71290;SDS011;59073;51.994;4.448;2023-06-14T03:08:59;2.84;;;2.84;;
71290;SDS011;59073;51.994;4.448;2023-06-14T03:11:28;3.04;;;3.01;;
71290;SDS011;59073;51.994;4.448;2023-06-14T03:13:53;3.01;;;2.97;;
71290;SDS011;59073;51.994;4.448;2023-06-14T03:16:20;2.96;;;2.96;;
71290;SDS011;59073;51.994;4.448;2023-06-14T03:18:50;3.16;;;3.16;;
71290;SDS011;59073;51.994;4.448;2023-06-14T03:21:17;3.06;;;3.06;;
71290;SDS011;59073;51.994;4.448;2023-06-14T03:23:43;2.94;;;2.94;;
71290;SDS011;59073;51.994;4.448;2023-06-14T03:26:09;2.72;;;2.72;;
71290;SDS011;59073;51.994;4.448;2023-06-14T03:28:38;2.76;;;2.76;;
71290;SDS011;59073;51.994;4.448;2023-06-14T03:31:03;3.06;;;3.06;;
71290;SDS011;59073;51.994;4.448;2023-06-14T03:33:29;3.12;;;3.12;;
71290;SDS011;59073;51.994;4.448;2023-06-14T03:35:54;2.97;;;2.96;;
71290;SDS011;59073;51.994;4.448;2023-06-14T03:38:21;2.91;;;2.89;;
71290;SDS011;59073;51.994;4.448;2023-06-14T03:40:47;3.09;;;3.08;;
71290;SDS011;59073;51.994;4.448;2023-06-14T03:43:12;2.79;;;2.79;;
71290;SDS011;59073;51.994;4.448;2023-06-14T03:45:38;3.10;;;3.10;;
71290;SDS011;59073;51.994;4.448;2023-06-14T03:48:03;2.78;;;2.78;;
71290;SDS011;59073;51.994;4.448;2023-06-14T03:50:31;2.71;;;2.71;;
71290;SDS011;59073;51.994;4.448;2023-06-14T03:52:57;2.75;;;2.75;;
71290;SDS011;59073;51.994;4.448;2023-06-14T03:55:23;2.80;;;2.80;;
71290;SDS011;59073;51.994;4.448;2023-06-14T03:57:50;2.70;;;2.70;;
71290;SDS011;59073;51.994;4.448;2023-06-14T04:00:17;3.06;;;3.06;;
71290;SDS011;59073;51.994;4.448;2023-06-14T04:02:43;2.64;;;2.64;;
71290;SDS011;59073;51.994;4.448;2023-06-14T04:05:12;2.89;;;2.89;;
71290;SDS011;59073;51.994;4.448;2023-06-14T04:07:38;2.67;;;2.67;;
71290;SDS011;59073;51.994;4.448;2023-06-14T04:10:10;2.72;;;2.72;;
71290;SDS011;59073;51.994;4.448;2023-06-14T04:12:38;3.06;;;3.04;;
71290;SDS011;59073;51.994;4.448;2023-06-14T04:15:04;2.97;;;2.96;;
71290;SDS011;59073;51.994;4.448;2023-06-14T04:17:34;2.84;;;2.84;;
71290;SDS011;59073;51.994;4.448;2023-06-14T04:19:59;2.99;;;2.99;;
71290;SDS011;59073;51.994;4.448;2023-06-14T04:22:26;3.02;;;3.02;;
71290;SDS011;59073;51.994;4.448;2023-06-14T04:24:55;2.80;;;2.80;;
71290;SDS011;59073;51.994;4.448;2023-06-14T04:27:25;2.72;;;2.72;;
71290;SDS011;59073;51.994;4.448;2023-06-14T04:29:52;2.74;;;2.74;;
71290;SDS011;59073;51.994;4.448;2023-06-14T04:32:23;2.70;;;2.70;;
71290;SDS011;59073;51.994;4.448;2023-06-14T04:34:50;2.58;;;2.58;;
71290;SDS011;59073;51.994;4.448;2023-06-14T04:37:18;2.71;;;2.71;;
71290;SDS011;59073;51.994;4.448;2023-06-14T04:39:46;2.69;;;2.69;;
71290;SDS011;59073;51.994;4.448;2023-06-14T04:42:12;2.73;;;2.73;;
71290;SDS011;59073;51.994;4.448;2023-06-14T04:44:40;2.65;;;2.65;;
71290;SDS011;59073;51.994;4.448;2023-06-14T04:47:06;2.55;;;2.55;;
71290;SDS011;59073;51.994;4.448;2023-06-14T04:49:32;2.55;;;2.55;;
71290;SDS011;59073;51.994;4.448;2023-06-14T04:51:59;2.44;;;2.44;;
71290;SDS011;59073;51.994;4.448;2023-06-14T04:54:26;2.46;;;2.46;;
71290;SDS011;59073;51.994;4.448;2023-06-14T04:56:52;2.39;;;2.39;;
71290;SDS011;59073;51.994;4.448;2023-06-14T04:59:20;2.47;;;2.47;;
71290;SDS011;59073;51.994;4.448;2023-06-14T05:01:48;2.68;;;2.68;;
71290;SDS011;59073;51.994;4.448;2023-06-14T05:04:15;2.34;;;2.34;;
71290;SDS011;59073;51.994;4.448;2023-06-14T05:06:41;2.52;;;2.52;;
71290;SDS011;59073;51.994;4.448;2023-06-14T05:09:10;2.63;;;2.63;;
71290;SDS011;59073;51.994;4.448;2023-06-14T05:11:36;2.34;;;2.34;;
71290;SDS011;59073;51.994;4.448;2023-06-14T05:14:01;2.52;;;2.52;;
71290;SDS011;59073;51.994;4.448;2023-06-14T05:16:27;2.45;;;2.44;;
71290;SDS011;59073;51.994;4.448;2023-06-14T05:18:54;2.68;;;2.68;;
71290;SDS011;59073;51.994;4.448;2023-06-14T05:21:20;2.51;;;2.51;;
71290;SDS011;59073;51.994;4.448;2023-06-14T05:23:45;2.51;;;2.51;;
71290;SDS011;59073;51.994;4.448;2023-06-14T05:26:11;2.48;;;2.48;;
71290;SDS011;59073;51.994;4.448;2023-06-14T05:28:36;2.56;;;2.56;;
71290;SDS011;59073;51.994;4.448;2023-06-14T05:31:02;2.36;;;2.36;;
71290;SDS011;59073;51.994;4.448;2023-06-14T05:33:27;2.57;;;2.57;;
71290;SDS011;59073;51.994;4.448;2023-06-14T05:35:53;2.51;;;2.51;;
71290;SDS011;59073;51.994;4.448;2023-06-14T05:38:19;2.63;;;2.63;;
71290;SDS011;59073;51.994;4.448;2023-06-14T05:40:44;2.42;;;2.42;;
71290;SDS011;59073;51.994;4.448;2023-06-14T05:43:10;2.41;;;2.41;;
71290;SDS011;59073;51.994;4.448;2023-06-14T05:45:35;2.42;;;2.42;;
71290;SDS011;59073;51.994;4.448;2023-06-14T05:48:01;2.75;;;2.75;;
71290;SDS011;59073;51.994;4.448;2023-06-14T05:50:26;2.78;;;2.78;;
71290;SDS011;59073;51.994;4.448;2023-06-14T05:52:52;2.64;;;2.64;;
71290;SDS011;59073;51.994;4.448;2023-06-14T05:55:18;2.35;;;2.35;;
71290;SDS011;59073;51.994;4.448;2023-06-14T05:57:44;2.69;;;2.69;;
71290;SDS011;59073;51.994;4.448;2023-06-14T06:00:10;2.39;;;2.39;;
71290;SDS011;59073;51.994;4.448;2023-06-14T06:02:39;2.42;;;2.42;;
71290;SDS011;59073;51.994;4.448;2023-06-14T06:05:08;2.61;;;2.61;;
71290;SDS011;59073;51.994;4.448;2023-06-14T06:07:34;2.32;;;2.32;;
71290;SDS011;59073;51.994;4.448;2023-06-14T06:10:00;2.48;;;2.48;;
71290;SDS011;59073;51.994;4.448;2023-06-14T06:12:25;2.26;;;2.26;;
71290;SDS011;59073;51.994;4.448;2023-06-14T06:14:51;2.40;;;2.40;;
71290;SDS011;59073;51.994;4.448;2023-06-14T06:17:16;2.49;;;2.49;;
71290;SDS011;59073;51.994;4.448;2023-06-14T06:19:41;2.53;;;2.53;;
71290;SDS011;59073;51.994;4.448;2023-06-14T06:22:07;2.33;;;2.33;;
71290;SDS011;59073;51.994;4.448;2023-06-14T06:24:33;2.14;;;2.14;;
71290;SDS011;59073;51.994;4.448;2023-06-14T06:26:58;2.57;;;2.57;;
71290;SDS011;59073;51.994;4.448;2023-06-14T06:29:23;2.48;;;2.48;;
71290;SDS011;59073;51.994;4.448;2023-06-14T06:31:49;2.28;;;2.28;;
71290;SDS011;59073;51.994;4.448;2023-06-14T06:34:14;2.52;;;2.52;;
71290;SDS011;59073;51.994;4.448;2023-06-14T06:36:40;2.67;;;2.67;;
71290;SDS011;59073;51.994;4.448;2023-06-14T06:39:05;2.62;;;2.62;;
71290;SDS011;59073;51.994;4.448;2023-06-14T06:41:35;2.53;;;2.53;;
71290;SDS011;59073;51.994;4.448;2023-06-14T06:44:03;2.53;;;2.53;;
71290;SDS011;59073;51.994;4.448;2023-06-14T06:46:28;2.52;;;2.52;;
71290;SDS011;59073;51.994;4.448;2023-06-14T06:48:53;2.36;;;2.36;;
71290;SDS011;59073;51.994;4.448;2023-06-14T06:51:19;2.32;;;2.32;;
71290;SDS011;59073;51.994;4.448;2023-06-14T06:53:51;2.66;;;2.66;;
71290;SDS011;59073;51.994;4.448;2023-06-14T06:56:18;3.06;;;3.06;;
71290;SDS011;59073;51.994;4.448;2023-06-14T06:58:44;2.76;;;2.76;;
71290;SDS011;59073;51.994;4.448;2023-06-14T07:01:10;2.71;;;2.71;;
71290;SDS011;59073;51.994;4.448;2023-06-14T07:03:36;2.82;;;2.82;;
71290;SDS011;59073;51.994;4.448;2023-06-14T07:06:02;2.66;;;2.66;;
71290;SDS011;59073;51.994;4.448;2023-06-14T07:08:27;2.95;;;2.95;;
71290;SDS011;59073;51.994;4.448;2023-06-14T07:10:53;2.93;;;2.93;;
71290;SDS011;59073;51.994;4.448;2023-06-14T07:13:18;2.53;;;2.53;;
71290;SDS011;59073;51.994;4.448;2023-06-14T07:15:44;2.58;;;2.58;;
71290;SDS011;59073;51.994;4.448;2023-06-14T07:18:09;2.73;;;2.73;;
71290;SDS011;59073;51.994;4.448;2023-06-14T07:20:35;2.58;;;2.58;;
71290;SDS011;59073;51.994;4.448;2023-06-14T07:23:03;2.80;;;2.80;;
71290;SDS011;59073;51.994;4.448;2023-06-14T07:25:28;2.53;;;2.53;;
71290;SDS011;59073;51.994;4.448;2023-06-14T07:27:54;2.62;;;2.62;;
71290;SDS011;59073;51.994;4.448;2023-06-14T07:30:20;2.55;;;2.55;;
71290;SDS011;59073;51.994;4.448;2023-06-14T07:32:46;2.60;;;2.60;;
71290;SDS011;59073;51.994;4.448;2023-06-14T07:35:11;2.86;;;2.86;;
71290;SDS011;59073;51.994;4.448;2023-06-14T07:37:36;2.82;;;2.82;;
71290;SDS011;59073;51.994;4.448;2023-06-14T07:40:02;2.93;;;2.93;;
71290;SDS011;59073;51.994;4.448;2023-06-14T07:42:33;3.04;;;3.04;;
71290;SDS011;59073;51.994;4.448;2023-06-14T07:44:59;2.63;;;2.63;;
71290;SDS011;59073;51.994;4.448;2023-06-14T07:47:25;3.01;;;3.01;;
71290;SDS011;59073;51.994;4.448;2023-06-14T07:49:51;2.71;;;2.71;;
71290;SDS011;59073;51.994;4.448;2023-06-14T07:52:16;2.54;;;2.54;;
71290;SDS011;59073;51.994;4.448;2023-06-14T07:54:42;2.62;;;2.62;;
71290;SDS011;59073;51.994;4.448;2023-06-14T07:57:08;2.67;;;2.67;;
71290;SDS011;59073;51.994;4.448;2023-06-14T07:59:33;2.72;;;2.72;;
71290;SDS011;59073;51.994;4.448;2023-06-14T08:01:59;2.64;;;2.64;;
71290;SDS011;59073;51.994;4.448;2023-06-14T08:04:25;2.57;;;2.57;;
71290;SDS011;59073;51.994;4.448;2023-06-14T08:06:50;2.82;;;2.82;;
71290;SDS011;59073;51.994;4.448;2023-06-14T08:09:15;2.92;;;2.92;;
71290;SDS011;59073;51.994;4.448;2023-06-14T08:11:41;2.89;;;2.89;;
71290;SDS011;59073;51.994;4.448;2023-06-14T08:14:06;2.80;;;2.80;;
71290;SDS011;59073;51.994;4.448;2023-06-14T08:16:32;2.69;;;2.69;;
71290;SDS011;59073;51.994;4.448;2023-06-14T08:18:57;2.69;;;2.69;;
71290;SDS011;59073;51.994;4.448;2023-06-14T08:21:23;2.75;;;2.75;;
71290;SDS011;59073;51.994;4.448;2023-06-14T08:23:48;2.69;;;2.69;;
71290;SDS011;59073;51.994;4.448;2023-06-14T08:26:14;2.84;;;2.84;;
71290;SDS011;59073;51.994;4.448;2023-06-14T08:28:39;2.76;;;2.76;;
71290;SDS011;59073;51.994;4.448;2023-06-14T08:31:05;2.70;;;2.70;;
71290;SDS011;59073;51.994;4.448;2023-06-14T08:33:30;2.57;;;2.57;;
71290;SDS011;59073;51.994;4.448;2023-06-14T08:35:58;2.90;;;2.90;;
71290;SDS011;59073;51.994;4.448;2023-06-14T08:38:23;2.37;;;2.37;;
71290;SDS011;59073;51.994;4.448;2023-06-14T08:40:50;2.59;;;2.59;;
71290;SDS011;59073;51.994;4.448;2023-06-14T08:43:17;2.94;;;2.94;;
71290;SDS011;59073;51.994;4.448;2023-06-14T08:45:43;2.73;;;2.73;;
71290;SDS011;59073;51.994;4.448;2023-06-14T08:48:14;2.64;;;2.64;;
71290;SDS011;59073;51.994;4.448;2023-06-14T08:50:42;2.79;;;2.79;;
71290;SDS011;59073;51.994;4.448;2023-06-14T08:53:11;2.69;;;2.69;;
71290;SDS011;59073;51.994;4.448;2023-06-14T08:55:44;2.73;;;2.73;;
71290;SDS011;59073;51.994;4.448;2023-06-14T08:58:10;2.92;;;2.92;;
71290;SDS011;59073;51.994;4.448;2023-06-14T09:00:39;2.57;;;2.57;;
71290;SDS011;59073;51.994;4.448;2023-06-14T09:03:06;2.46;;;2.46;;
71290;SDS011;59073;51.994;4.448;2023-06-14T09:05:38;2.31;;;2.31;;
71290;SDS011;59073;51.994;4.448;2023-06-14T09:08:04;2.66;;;2.66;;
71290;SDS011;59073;51.994;4.448;2023-06-14T09:10:30;2.54;;;2.54;;
71290;SDS011;59073;51.994;4.448;2023-06-14T09:13:02;2.49;;;2.49;;
71290;SDS011;59073;51.994;4.448;2023-06-14T09:15:28;2.57;;;2.57;;
71290;SDS011;59073;51.994;4.448;2023-06-14T09:17:54;2.48;;;2.48;;
71290;SDS011;59073;51.994;4.448;2023-06-14T09:20:21;2.23;;;2.23;;
71290;SDS011;59073;51.994;4.448;2023-06-14T09:22:49;2.33;;;2.33;;
71290;SDS011;59073;51.994;4.448;2023-06-14T09:25:15;2.36;;;2.36;;
71290;SDS011;59073;51.994;4.448;2023-06-14T09:27:41;2.44;;;2.44;;
71290;SDS011;59073;51.994;4.448;2023-06-14T09:30:08;2.10;;;2.10;;
71290;SDS011;59073;51.994;4.448;2023-06-14T09:32:38;2.39;;;2.39;;
71290;SDS011;59073;51.994;4.448;2023-06-14T09:35:08;2.10;;;2.10;;
71290;SDS011;59073;51.994;4.448;2023-06-14T09:37:34;2.53;;;2.53;;
71290;SDS011;59073;51.994;4.448;2023-06-14T09:40:03;2.17;;;2.17;;
71290;SDS011;59073;51.994;4.448;2023-06-14T09:42:28;2.13;;;2.13;;
71290;SDS011;59073;51.994;4.448;2023-06-14T09:44:55;2.06;;;2.06;;
71290;SDS011;59073;51.994;4.448;2023-06-14T09:47:22;2.35;;;2.35;;
71290;SDS011;59073;51.994;4.448;2023-06-14T09:49:49;2.31;;;2.31;;
71290;SDS011;59073;51.994;4.448;2023-06-14T09:52:17;2.12;;;2.12;;
71290;SDS011;59073;51.994;4.448;2023-06-14T09:54:44;2.27;;;2.27;;
71290;SDS011;59073;51.994;4.448;2023-06-14T09:57:12;2.16;;;2.16;;
71290;SDS011;59073;51.994;4.448;2023-06-14T09:59:41;2.13;;;2.13;;
71290;SDS011;59073;51.994;4.448;2023-06-14T10:02:22;2.18;;;2.18;;
71290;SDS011;59073;51.994;4.448;2023-06-14T10:05:03;1.95;;;1.95;;
71290;SDS011;59073;51.994;4.448;2023-06-14T10:07:53;1.78;;;1.78;;
71290;SDS011;59073;51.994;4.448;2023-06-14T10:10:18;1.99;;;1.99;;
71290;SDS011;59073;51.994;4.448;2023-06-14T10:12:44;1.67;;;1.67;;
71290;SDS011;59073;51.994;4.448;2023-06-14T10:15:10;1.78;;;1.78;;
71290;SDS011;59073;51.994;4.448;2023-06-14T10:18:09;1.64;;;1.64;;
71290;SDS011;59073;51.994;4.448;2023-06-14T10:23:51;1.80;;;1.80;;
71290;SDS011;59073;51.994;4.448;2023-06-14T10:26:20;1.50;;;1.50;;
71290;SDS011;59073;51.994;4.448;2023-06-14T10:28:57;1.80;;;1.80;;
71290;SDS011;59073;51.994;4.448;2023-06-14T10:31:23;1.53;;;1.53;;
71290;SDS011;59073;51.994;4.448;2023-06-14T10:34:21;1.64;;;1.64;;
71290;SDS011;59073;51.994;4.448;2023-06-14T10:37:00;1.45;;;1.45;;
71290;SDS011;59073;51.994;4.448;2023-06-14T10:39:30;1.83;;;1.83;;
71290;SDS011;59073;51.994;4.448;2023-06-14T10:41:56;1.59;;;1.59;;
71290;SDS011;59073;51.994;4.448;2023-06-14T10:46:54;1.75;;;1.75;;
71290;SDS011;59073;51.994;4.448;2023-06-14T10:49:36;1.68;;;1.68;;
71290;SDS011;59073;51.994;4.448;2023-06-14T10:52:08;1.57;;;1.57;;
71290;SDS011;59073;51.994;4.448;2023-06-14T10:57:44;1.71;;;1.71;;
71290;SDS011;59073;51.994;4.448;2023-06-14T11:00:16;1.43;;;1.43;;
71290;SDS011;59073;51.994;4.448;2023-06-14T11:03:04;1.58;;;1.58;;
71290;SDS011;59073;51.994;4.448;2023-06-14T11:05:49;1.51;;;1.51;;
71290;SDS011;59073;51.994;4.448;2023-06-14T11:08:23;1.53;;;1.53;;
71290;SDS011;59073;51.994;4.448;2023-06-14T11:10:53;1.48;;;1.48;;
71290;SDS011;59073;51.994;4.448;2023-06-14T11:13:21;1.47;;;1.47;;
71290;SDS011;59073;51.994;4.448;2023-06-14T11:15:50;1.50;;;1.50;;
71290;SDS011;59073;51.994;4.448;2023-06-14T11:18:18;1.53;;;1.53;;
71290;SDS011;59073;51.994;4.448;2023-06-14T11:20:45;1.59;;;1.59;;
71290;SDS011;59073;51.994;4.448;2023-06-14T11:23:12;1.71;;;1.71;;
71290;SDS011;59073;51.994;4.448;2023-06-14T11:25:37;1.31;;;1.31;;
71290;SDS011;59073;51.994;4.448;2023-06-14T11:28:02;1.46;;;1.46;;
71290;SDS011;59073;51.994;4.448;2023-06-14T11:30:28;1.46;;;1.46;;
71290;SDS011;59073;51.994;4.448;2023-06-14T11:32:54;1.31;;;1.31;;
71290;SDS011;59073;51.994;4.448;2023-06-14T11:35:24;1.34;;;1.34;;
71290;SDS011;59073;51.994;4.448;2023-06-14T11:37:54;1.00;;;1.00;;
71290;SDS011;59073;51.994;4.448;2023-06-14T11:40:23;1.27;;;1.27;;
71290;SDS011;59073;51.994;4.448;2023-06-14T11:42:49;1.48;;;1.48;;
71290;SDS011;59073;51.994;4.448;2023-06-14T11:45:15;1.30;;;1.30;;
71290;SDS011;59073;51.994;4.448;2023-06-14T11:47:40;1.04;;;1.04;;
71290;SDS011;59073;51.994;4.448;2023-06-14T11:50:07;1.21;;;1.21;;
71290;SDS011;59073;51.994;4.448;2023-06-14T11:52:35;1.06;;;1.06;;
71290;SDS011;59073;51.994;4.448;2023-06-14T11:55:02;1.19;;;1.19;;
71290;SDS011;59073;51.994;4.448;2023-06-14T11:57:34;1.23;;;1.23;;
71290;SDS011;59073;51.994;4.448;2023-06-14T12:00:04;1.28;;;1.28;;
71290;SDS011;59073;51.994;4.448;2023-06-14T12:02:38;1.24;;;1.24;;
71290;SDS011;59073;51.994;4.448;2023-06-14T12:05:05;1.33;;;1.33;;
71290;SDS011;59073;51.994;4.448;2023-06-14T12:07:35;1.09;;;1.09;;
71290;SDS011;59073;51.994;4.448;2023-06-14T12:12:28;1.17;;;1.17;;
71290;SDS011;59073;51.994;4.448;2023-06-14T12:14:57;1.19;;;1.19;;
71290;SDS011;59073;51.994;4.448;2023-06-14T12:17:22;1.36;;;1.36;;
71290;SDS011;59073;51.994;4.448;2023-06-14T12:19:48;1.30;;;1.30;;
71290;SDS011;59073;51.994;4.448;2023-06-14T12:22:15;1.34;;;1.34;;
71290;SDS011;59073;51.994;4.448;2023-06-14T12:24:45;1.17;;;1.17;;
71290;SDS011;59073;51.994;4.448;2023-06-14T12:27:11;1.27;;;1.27;;
71290;SDS011;59073;51.994;4.448;2023-06-14T12:29:43;1.07;;;1.07;;
71290;SDS011;59073;51.994;4.448;2023-06-14T12:32:09;1.08;;;1.08;;
71290;SDS011;59073;51.994;4.448;2023-06-14T12:34:35;1.30;;;1.30;;
71290;SDS011;59073;51.994;4.448;2023-06-14T12:37:01;1.09;;;1.09;;
71290;SDS011;59073;51.994;4.448;2023-06-14T12:39:29;1.24;;;1.24;;
71290;SDS011;59073;51.994;4.448;2023-06-14T12:41:56;1.26;;;1.26;;
71290;SDS011;59073;51.994;4.448;2023-06-14T12:44:22;1.27;;;1.27;;
71290;SDS011;59073;51.994;4.448;2023-06-14T12:46:47;1.28;;;1.28;;
71290;SDS011;59073;51.994;4.448;2023-06-14T12:49:13;1.31;;;1.31;;
71290;SDS011;59073;51.994;4.448;2023-06-14T12:51:38;1.26;;;1.26;;
71290;SDS011;59073;51.994;4.448;2023-06-14T12:54:05;1.29;;;1.29;;
71290;SDS011;59073;51.994;4.448;2023-06-14T12:56:31;1.15;;;1.15;;
71290;SDS011;59073;51.994;4.448;2023-06-14T12:58:57;1.17;;;1.17;;
71290;SDS011;59073;51.994;4.448;2023-06-14T13:01:23;1.30;;;1.30;;
71290;SDS011;59073;51.994;4.448;2023-06-14T13:03:49;1.32;;;1.32;;
71290;SDS011;59073;51.994;4.448;2023-06-14T13:06:15;1.28;;;1.28;;
71290;SDS011;59073;51.994;4.448;2023-06-14T13:08:41;1.19;;;1.19;;
71290;SDS011;59073;51.994;4.448;2023-06-14T13:11:06;1.11;;;1.11;;
71290;SDS011;59073;51.994;4.448;2023-06-14T13:13:32;1.36;;;1.36;;
71290;SDS011;59073;51.994;4.448;2023-06-14T13:15:58;1.36;;;1.36;;
71290;SDS011;59073;51.994;4.448;2023-06-14T13:18:23;1.19;;;1.19;;
71290;SDS011;59073;51.994;4.448;2023-06-14T13:20:49;1.31;;;1.31;;
71290;SDS011;59073;51.994;4.448;2023-06-14T13:23:15;1.16;;;1.16;;
71290;SDS011;59073;51.994;4.448;2023-06-14T13:25:41;1.45;;;1.45;;
71290;SDS011;59073;51.994;4.448;2023-06-14T13:28:06;1.31;;;1.31;;
71290;SDS011;59073;51.994;4.448;2023-06-14T13:30:32;1.14;;;1.14;;
71290;SDS011;59073;51.994;4.448;2023-06-14T13:32:58;1.25;;;1.25;;
71290;SDS011;59073;51.994;4.448;2023-06-14T13:35:24;1.11;;;1.11;;
71290;SDS011;59073;51.994;4.448;2023-06-14T13:37:50;1.32;;;1.32;;
71290;SDS011;59073;51.994;4.448;2023-06-14T13:40:16;1.13;;;1.13;;
71290;SDS011;59073;51.994;4.448;2023-06-14T13:42:42;0.99;;;0.99;;
71290;SDS011;59073;51.994;4.448;2023-06-14T13:45:08;1.35;;;1.35;;
71290;SDS011;59073;51.994;4.448;2023-06-14T13:47:36;1.33;;;1.33;;
71290;SDS011;59073;51.994;4.448;2023-06-14T13:50:02;1.08;;;1.08;;
71290;SDS011;59073;51.994;4.448;2023-06-14T13:52:28;1.39;;;1.39;;
71290;SDS011;59073;51.994;4.448;2023-06-14T13:54:53;1.25;;;1.25;;
71290;SDS011;59073;51.994;4.448;2023-06-14T13:57:19;1.02;;;1.02;;
71290;SDS011;59073;51.994;4.448;2023-06-14T13:59:45;1.13;;;1.13;;
71290;SDS011;59073;51.994;4.448;2023-06-14T14:02:10;1.26;;;1.26;;
71290;SDS011;59073;51.994;4.448;2023-06-14T14:04:36;1.36;;;1.36;;
71290;SDS011;59073;51.994;4.448;2023-06-14T14:07:03;1.21;;;1.21;;
71290;SDS011;59073;51.994;4.448;2023-06-14T14:09:30;1.26;;;1.26;;
71290;SDS011;59073;51.994;4.448;2023-06-14T14:11:57;1.27;;;1.27;;
71290;SDS011;59073;51.994;4.448;2023-06-14T14:14:23;1.33;;;1.33;;
71290;SDS011;59073;51.994;4.448;2023-06-14T14:16:50;1.31;;;1.31;;
71290;SDS011;59073;51.994;4.448;2023-06-14T14:19:19;1.07;;;1.07;;
71290;SDS011;59073;51.994;4.448;2023-06-14T14:21:48;1.30;;;1.30;;
71290;SDS011;59073;51.994;4.448;2023-06-14T14:24:13;1.39;;;1.39;;
71290;SDS011;59073;51.994;4.448;2023-06-14T14:26:39;1.37;;;1.37;;
71290;SDS011;59073;51.994;4.448;2023-06-14T14:29:05;1.24;;;1.24;;
71290;SDS011;59073;51.994;4.448;2023-06-14T14:31:31;1.23;;;1.23;;
71290;SDS011;59073;51.994;4.448;2023-06-14T14:33:56;1.50;;;1.50;;
71290;SDS011;59073;51.994;4.448;2023-06-14T14:36:22;1.10;;;1.10;;
71290;SDS011;59073;51.994;4.448;2023-06-14T14:38:47;1.31;;;1.31;;
71290;SDS011;59073;51.994;4.448;2023-06-14T14:41:13;1.23;;;1.23;;
71290;SDS011;59073;51.994;4.448;2023-06-14T14:43:39;1.17;;;1.17;;
71290;SDS011;59073;51.994;4.448;2023-06-14T14:46:04;1.11;;;1.11;;
71290;SDS011;59073;51.994;4.448;2023-06-14T14:48:30;1.33;;;1.33;;
71290;SDS011;59073;51.994;4.448;2023-06-14T14:50:55;1.46;;;1.46;;
71290;SDS011;59073;51.994;4.448;2023-06-14T14:53:20;1.37;;;1.37;;
71290;SDS011;59073;51.994;4.448;2023-06-14T14:55:46;1.38;;;1.38;;
71290;SDS011;59073;51.994;4.448;2023-06-14T14:58:12;1.27;;;1.27;;